Time;durP1;ratioP1;P1;durP2;ratioP2;P2;SDS_P1;SDS_P2;PMS_P1;PMS_P2;Temp;Humidity;BMP_temperature;BMP_pressure;BME280_temperature;BME280_humidity;BME280_pressure;Samples;Min_cycle;Max_cycle;Signal;HPM_P1;HPM_P2
2020/12/11 00:00:33;;;;;;;23.77;15.77;;;2.40;99.90;;;;;;6205739;23;20181;-83
2020/12/11 00:02:59;;;;;;;21.63;15.07;;;2.50;99.90;;;;;;6178693;23;20897;-84
2020/12/11 00:05:25;;;;;;;24.00;14.83;;;2.50;99.90;;;;;;6205492;23;20445;-84
2020/12/11 00:07:50;;;;;;;22.03;15.00;;;2.50;99.90;;;;;;6205689;23;20168;-84
2020/12/11 00:10:16;;;;;;;18.83;13.93;;;2.50;99.90;;;;;;6177788;23;20164;-84
2020/12/11 00:12:42;;;;;;;21.70;14.50;;;2.50;99.90;;;;;;6206321;23;20178;-85
2020/12/11 00:15:09;;;;;;;21.47;14.97;;;2.50;99.90;;;;;;6205247;23;20953;-84
2020/12/11 00:17:35;;;;;;;22.03;15.80;;;2.50;99.90;;;;;;6206423;23;20150;-84
2020/12/11 00:20:04;;;;;;;19.30;13.80;;;2.50;99.90;;;;;;6177760;23;20764;-84
2020/12/11 00:22:30;;;;;;;18.83;14.23;;;2.60;99.90;;;;;;6205434;23;20375;-84
2020/12/11 00:24:55;;;;;;;23.13;15.93;;;2.50;99.90;;;;;;6202414;23;20390;-84
2020/12/11 00:27:21;;;;;;;21.30;14.67;;;2.50;99.90;;;;;;6204302;23;20148;-84
2020/12/11 00:29:47;;;;;;;23.30;14.93;;;2.40;99.90;;;;;;6178333;23;20420;-84
2020/12/11 00:32:12;;;;;;;20.77;14.60;;;2.50;99.90;;;;;;6205117;23;20159;-84
2020/12/11 00:34:39;;;;;;;19.10;13.73;;;2.50;99.90;;;;;;6178922;23;20382;-84
2020/12/11 00:37:06;;;;;;;23.20;15.60;;;2.50;99.90;;;;;;6205815;23;20187;-83
2020/12/11 00:39:32;;;;;;;18.60;13.23;;;2.50;99.90;;;;;;6203892;23;20384;-83
2020/12/11 00:41:57;;;;;;;20.20;14.00;;;2.50;99.90;;;;;;6205142;23;20472;-84
2020/12/11 00:44:23;;;;;;;20.10;14.10;;;2.50;99.90;;;;;;6205162;23;20868;-83
2020/12/11 00:46:49;;;;;;;19.67;14.10;;;2.50;99.90;;;;;;6204761;23;20155;-83
2020/12/11 00:49:15;;;;;;;19.27;13.90;;;2.50;99.90;;;;;;6205632;23;20702;-84
2020/12/11 00:51:41;;;;;;;19.10;13.37;;;2.40;99.90;;;;;;6204545;23;20384;-84
2020/12/11 00:54:07;;;;;;;19.90;14.47;;;2.40;99.90;;;;;;6204279;23;20187;-83
2020/12/11 00:56:32;;;;;;;19.00;14.27;;;2.40;99.90;;;;;;6178406;23;20160;-83
2020/12/11 00:58:58;;;;;;;19.70;14.13;;;2.40;99.90;;;;;;6204445;23;20152;-83
2020/12/11 01:01:24;;;;;;;19.73;15.03;;;2.40;99.90;;;;;;6205082;23;20156;-83
2020/12/11 01:03:49;;;;;;;18.43;14.77;;;2.30;99.90;;;;;;6204430;23;20152;-83
2020/12/11 01:06:15;;;;;;;21.10;15.23;;;2.30;99.90;;;;;;6177887;23;20231;-84
2020/12/11 01:08:41;;;;;;;20.47;15.03;;;2.30;99.90;;;;;;6178198;23;20181;-84
2020/12/11 01:11:07;;;;;;;17.77;13.37;;;2.40;99.90;;;;;;6204706;23;20518;-84
2020/12/11 01:13:32;;;;;;;19.93;15.13;;;2.40;99.90;;;;;;6205356;23;20151;-84
2020/12/11 01:15:58;;;;;;;20.03;14.57;;;2.40;99.90;;;;;;6205135;23;20431;-84
2020/12/11 01:18:24;;;;;;;20.33;14.23;;;2.40;99.90;;;;;;6177409;23;20157;-84
2020/12/11 01:20:49;;;;;;;18.63;13.50;;;2.40;99.90;;;;;;6178324;23;20183;-84
2020/12/11 01:23:18;;;;;;;21.40;16.10;;;2.50;99.90;;;;;;6178446;23;20155;-83
2020/12/11 01:25:43;;;;;;;19.90;14.20;;;2.30;99.90;;;;;;6177235;23;20176;-84
2020/12/11 01:28:09;;;;;;;18.43;13.93;;;2.20;99.90;;;;;;6178506;23;20403;-84
2020/12/11 01:30:35;;;;;;;19.90;13.80;;;2.20;99.90;;;;;;6204631;23;20683;-84
2020/12/11 01:33:00;;;;;;;18.30;13.30;;;2.10;99.90;;;;;;6205207;23;20156;-83
2020/12/11 01:35:26;;;;;;;18.13;12.27;;;2.10;99.90;;;;;;6204173;23;20197;-84
2020/12/11 01:37:52;;;;;;;19.30;13.47;;;2.00;99.90;;;;;;6178129;23;20160;-83
2020/12/11 01:40:17;;;;;;;17.47;13.20;;;1.90;99.90;;;;;;6177765;23;20164;-84
2020/12/11 01:42:43;;;;;;;19.40;14.40;;;1.90;99.90;;;;;;6176913;23;20661;-83
2020/12/11 01:45:09;;;;;;;18.80;14.47;;;1.70;99.90;;;;;;6204380;23;20156;-84
2020/12/11 01:47:39;;;;;;;21.60;14.87;;;1.80;99.90;;;;;;6205723;23;20234;-83
2020/12/11 01:50:06;;;;;;;19.50;14.57;;;1.80;99.90;;;;;;6203732;23;20379;-83
2020/12/11 01:52:32;;;;;;;21.50;14.50;;;1.60;99.90;;;;;;6176988;23;20387;-83
2020/12/11 01:54:58;;;;;;;20.57;14.70;;;1.60;99.90;;;;;;6205019;23;20430;-83
2020/12/11 01:57:34;;;;;;;20.47;13.60;;;1.60;99.90;;;;;;6178593;23;20564;-83
2020/12/11 02:00:04;;;;;;;19.23;13.13;;;1.60;99.90;;;;;;6204231;23;20162;-83
2020/12/11 02:02:35;;;;;;;16.70;11.60;;;1.70;99.90;;;;;;6203851;23;20402;-83
2020/12/11 02:05:03;;;;;;;18.73;12.80;;;1.70;99.90;;;;;;6204444;23;20367;-83
2020/12/11 02:07:29;;;;;;;18.60;12.83;;;1.80;99.90;;;;;;6205158;23;20768;-83
2020/12/11 02:09:54;;;;;;;17.73;12.63;;;1.80;99.90;;;;;;6176648;23;20402;-83
2020/12/11 02:12:20;;;;;;;17.70;12.87;;;1.80;99.90;;;;;;6204766;23;20151;-83
2020/12/11 02:14:48;;;;;;;16.83;12.27;;;1.70;99.90;;;;;;6177965;23;20586;-83
2020/12/11 02:17:13;;;;;;;19.13;13.10;;;1.70;99.90;;;;;;6177023;23;20482;-83
2020/12/11 02:19:39;;;;;;;19.73;12.67;;;1.70;99.90;;;;;;6204018;23;20391;-83
2020/12/11 02:22:06;;;;;;;18.37;12.93;;;1.70;99.90;;;;;;6205196;23;20596;-83
2020/12/11 02:24:33;;;;;;;18.87;13.40;;;1.70;99.90;;;;;;6203382;23;20251;-83
2020/12/11 02:27:00;;;;;;;19.53;14.23;;;1.70;99.90;;;;;;6176835;23;20390;-84
2020/12/11 02:29:26;;;;;;;20.33;14.20;;;1.60;99.90;;;;;;6204511;23;20379;-84
2020/12/11 02:31:53;;;;;;;21.67;14.20;;;1.50;99.90;;;;;;6204674;23;20494;-84
2020/12/11 02:34:20;;;;;;;21.73;14.30;;;1.50;99.90;;;;;;6202627;23;20434;-84
2020/12/11 02:36:46;;;;;;;19.40;14.33;;;1.50;99.90;;;;;;6205245;23;20869;-84
2020/12/11 02:39:11;;;;;;;17.90;13.33;;;1.40;99.90;;;;;;6177148;23;20457;-84
2020/12/11 02:41:37;;;;;;;21.77;14.17;;;1.40;99.90;;;;;;6203235;23;20148;-83
2020/12/11 02:44:03;;;;;;;20.60;14.43;;;1.30;99.90;;;;;;6203814;23;20173;-83
2020/12/11 02:46:29;;;;;;;22.70;15.13;;;1.20;99.90;;;;;;6204540;23;20160;-83
2020/12/11 02:48:55;;;;;;;23.43;15.40;;;1.10;99.90;;;;;;6177251;23;21157;-84
2020/12/11 02:51:21;;;;;;;23.90;15.93;;;0.90;99.90;;;;;;6203873;23;20387;-84
2020/12/11 02:53:50;;;;;;;20.03;13.57;;;0.80;99.90;;;;;;6204512;23;20884;-84
2020/12/11 02:56:20;;;;;;;23.03;15.17;;;0.90;99.90;;;;;;6176894;23;20740;-84
2020/12/11 02:58:46;;;;;;;24.70;15.77;;;0.80;99.90;;;;;;6178054;23;20769;-83
2020/12/11 03:01:12;;;;;;;22.50;15.27;;;0.80;99.90;;;;;;6203605;23;20387;-84
2020/12/11 03:03:38;;;;;;;23.70;14.80;;;0.80;99.90;;;;;;6203394;23;20382;-84
2020/12/11 03:06:04;;;;;;;22.80;14.27;;;0.70;99.90;;;;;;6206923;23;20394;-83
2020/12/11 03:08:29;;;;;;;25.23;16.27;;;0.80;99.90;;;;;;6206120;23;20437;-84
2020/12/11 03:10:55;;;;;;;23.43;15.53;;;0.80;99.90;;;;;;6205476;23;20152;-84
2020/12/11 03:13:21;;;;;;;22.70;14.67;;;0.80;99.90;;;;;;6206191;23;20160;-84
2020/12/11 03:15:46;;;;;;;23.63;16.20;;;0.80;99.90;;;;;;6205791;23;20241;-83
2020/12/11 03:18:12;;;;;;;21.40;14.20;;;0.80;99.90;;;;;;6178748;23;20213;-84
2020/12/11 03:20:37;;;;;;;21.50;15.10;;;0.80;99.90;;;;;;6205890;23;20148;-84
2020/12/11 03:23:03;;;;;;;20.90;13.40;;;0.90;99.90;;;;;;6206197;23;20148;-84
2020/12/11 03:25:29;;;;;;;19.77;14.50;;;1.00;99.90;;;;;;6205819;23;20221;-84
2020/12/11 03:27:54;;;;;;;18.73;13.30;;;1.00;99.90;;;;;;6206022;23;20660;-84
2020/12/11 03:30:20;;;;;;;17.43;12.53;;;1.00;99.90;;;;;;6206334;23;20151;-84
2020/12/11 03:32:46;;;;;;;20.63;13.90;;;1.00;99.90;;;;;;6205512;23;20156;-84
2020/12/11 03:35:12;;;;;;;23.90;14.30;;;1.00;99.90;;;;;;6179056;23;20253;-85
2020/12/11 03:37:37;;;;;;;24.63;15.60;;;1.00;99.90;;;;;;6206426;23;20171;-84
2020/12/11 03:40:04;;;;;;;23.33;14.10;;;0.90;99.90;;;;;;6178590;23;20160;-85
2020/12/11 03:42:30;;;;;;;22.53;15.23;;;0.90;99.90;;;;;;6205611;23;20158;-84
2020/12/11 03:44:56;;;;;;;22.70;15.40;;;0.90;99.90;;;;;;6205626;23;20383;-84
2020/12/11 03:47:21;;;;;;;23.90;15.27;;;0.90;99.90;;;;;;6178750;23;20159;-84
2020/12/11 03:49:47;;;;;;;20.43;14.00;;;0.80;99.90;;;;;;6204767;23;20682;-84
2020/12/11 03:52:13;;;;;;;21.83;14.77;;;0.80;99.90;;;;;;6179136;23;20286;-85
2020/12/11 03:54:39;;;;;;;25.43;13.47;;;0.80;99.90;;;;;;6179086;23;20844;-84
2020/12/11 03:57:05;;;;;;;27.50;15.20;;;0.70;99.90;;;;;;6178568;23;20171;-84
2020/12/11 03:59:30;;;;;;;23.63;14.70;;;0.70;99.90;;;;;;6205928;23;20467;-84
2020/12/11 04:01:56;;;;;;;25.60;15.27;;;0.70;99.90;;;;;;6177948;23;20180;-84
2020/12/11 04:04:22;;;;;;;24.33;15.30;;;0.80;99.90;;;;;;6204631;23;20159;-84
2020/12/11 04:06:47;;;;;;;22.23;13.90;;;0.70;99.90;;;;;;6205556;23;20163;-84
2020/12/11 04:09:13;;;;;;;26.97;15.93;;;0.60;99.90;;;;;;6204565;23;20151;-84
2020/12/11 04:11:39;;;;;;;22.87;15.00;;;0.70;99.90;;;;;;6204619;23;20156;-83
2020/12/11 04:14:05;;;;;;;22.73;14.33;;;0.60;99.90;;;;;;6206149;23;20602;-83
2020/12/11 04:16:33;;;;;;;23.63;14.73;;;0.60;99.90;;;;;;6204424;23;20234;-83
2020/12/11 04:18:59;;;;;;;22.23;13.33;;;0.70;99.90;;;;;;6177821;23;20411;-83
2020/12/11 04:21:25;;;;;;;23.93;14.47;;;0.70;99.90;;;;;;6205660;23;20390;-83
2020/12/11 04:23:53;;;;;;;25.00;16.20;;;0.60;99.90;;;;;;6204696;23;20379;-84
2020/12/11 04:26:19;;;;;;;22.00;14.00;;;0.60;99.90;;;;;;6204079;23;20495;-84
2020/12/11 04:28:45;;;;;;;22.07;13.50;;;0.50;99.90;;;;;;6205965;23;20383;-83
2020/12/11 04:31:10;;;;;;;25.83;16.23;;;0.40;99.90;;;;;;6204342;23;20154;-83
2020/12/11 04:33:36;;;;;;;24.63;15.27;;;0.40;99.90;;;;;;6205285;23;20159;-83
2020/12/11 04:36:02;;;;;;;23.67;15.03;;;0.40;99.90;;;;;;6205819;23;20430;-83
2020/12/11 04:38:27;;;;;;;24.47;13.10;;;0.50;99.90;;;;;;6178683;23;20155;-83
2020/12/11 04:40:59;;;;;;;24.83;14.20;;;0.60;99.90;;;;;;6203582;23;20614;-83
2020/12/11 04:43:25;;;;;;;21.03;14.10;;;0.60;99.90;;;;;;6177556;23;20697;-83
2020/12/11 04:45:52;;;;;;;22.00;13.80;;;0.60;99.90;;;;;;6205065;23;20430;-83
2020/12/11 04:48:24;;;;;;;24.50;14.40;;;0.50;99.90;;;;;;6204490;23;20390;-87
2020/12/11 04:50:53;;;;;;;24.27;14.97;;;0.50;99.90;;;;;;6177297;23;20524;-83
2020/12/11 04:53:24;;;;;;;24.37;15.17;;;0.40;99.90;;;;;;6205362;23;20387;-83
2020/12/11 04:55:54;;;;;;;22.77;13.70;;;0.40;99.90;;;;;;6204528;23;20426;-84
2020/12/11 04:58:22;;;;;;;19.90;13.30;;;0.30;99.90;;;;;;6205891;23;20773;-84
2020/12/11 05:00:48;;;;;;;21.00;12.87;;;0.30;99.90;;;;;;6203400;23;20846;-83
2020/12/11 05:03:16;;;;;;;20.63;13.77;;;0.30;99.90;;;;;;6204893;23;20383;-83
2020/12/11 05:05:42;;;;;;;21.60;13.50;;;0.20;99.90;;;;;;6177627;23;20426;-84
2020/12/11 05:08:21;;;;;;;21.80;13.83;;;0.20;99.90;;;;;;6177612;23;20395;-84
2020/12/11 05:10:47;;;;;;;23.00;14.70;;;0.10;99.90;;;;;;6204172;23;20152;-84
2020/12/11 05:13:23;;;;;;;19.57;12.87;;;0.10;99.90;;;;;;6204814;23;20383;-84
2020/12/11 05:16:12;;;;;;;21.60;13.77;;;0.10;99.90;;;;;;6177687;23;20453;-83
2020/12/11 05:18:39;;;;;;;25.43;15.27;;;0.10;99.90;;;;;;6203634;23;20371;-84
2020/12/11 05:21:16;;;;;;;22.73;14.47;;;0.10;99.90;;;;;;6178227;23;20710;-84
2020/12/11 05:23:58;;;;;;;25.60;15.90;;;0.00;99.90;;;;;;6204528;23;20374;-84
2020/12/11 05:26:24;;;;;;;26.07;15.60;;;-0.10;99.90;;;;;;6177424;23;20994;-83
2020/12/11 05:28:50;;;;;;;26.87;16.73;;;-0.20;99.90;;;;;;6176807;23;20387;-83
2020/12/11 05:32:09;;;;;;;23.93;15.97;;;-0.20;99.90;;;;;;6177975;23;20718;-90
2020/12/11 05:34:43;;;;;;;26.77;17.20;;;-0.20;99.90;;;;;;6177266;23;20439;-91
2020/12/11 05:37:14;;;;;;;26.97;15.50;;;-0.20;99.90;;;;;;6202466;23;20457;-88
2020/12/11 05:39:40;;;;;;;25.37;16.33;;;-0.20;99.90;;;;;;6202283;23;20378;-88
2020/12/11 05:42:12;;;;;;;23.03;15.30;;;-0.10;99.90;;;;;;6178188;23;20846;-89
2020/12/11 05:44:38;;;;;;;21.37;14.13;;;-0.10;99.90;;;;;;6177920;23;20162;-89
2020/12/11 05:47:23;;;;;;;25.77;16.27;;;-0.20;99.90;;;;;;6179010;23;20391;-88
2020/12/11 05:49:50;;;;;;;27.37;14.77;;;-0.30;99.90;;;;;;6205432;23;20144;-90
2020/12/11 05:52:22;;;;;;;25.90;15.87;;;-0.30;99.90;;;;;;6178846;23;20936;-89
2020/12/11 05:54:53;;;;;;;23.27;14.60;;;-0.30;99.90;;;;;;6179499;23;20444;-89
2020/12/11 05:57:24;;;;;;;25.97;15.47;;;-0.30;99.90;;;;;;6206239;23;20367;-88
2020/12/11 05:59:51;;;;;;;24.90;14.97;;;-0.30;99.90;;;;;;6178016;23;20387;-88
2020/12/11 06:02:18;;;;;;;26.43;15.20;;;-0.30;99.90;;;;;;6204531;23;20406;-88
2020/12/11 06:04:47;;;;;;;22.13;15.07;;;-0.30;99.90;;;;;;6179598;23;20398;-89
2020/12/11 06:07:14;;;;;;;26.47;15.97;;;-0.30;99.90;;;;;;6178194;23;20403;-88
2020/12/11 06:09:42;;;;;;;22.10;15.03;;;-0.30;99.90;;;;;;6178821;23;20407;-88
2020/12/11 06:12:09;;;;;;;23.53;15.80;;;-0.30;99.90;;;;;;6178472;23;20379;-88
2020/12/11 06:15:06;;;;;;;43.07;24.10;;;-0.30;99.90;;;;;;6179262;23;20442;-88
2020/12/11 06:17:38;;;;;;;216.67;87.80;;;-0.20;99.90;;;;;;6167720;23;20438;-88
2020/12/11 06:20:07;;;;;;;80.93;37.17;;;-0.20;99.90;;;;;;6204557;23;20367;-89
2020/12/11 06:22:33;;;;;;;37.10;21.83;;;-0.20;99.90;;;;;;6205407;23;20390;-89
2020/12/11 06:25:25;;;;;;;25.47;14.93;;;-0.20;99.90;;;;;;6204988;23;20454;-88
2020/12/11 06:27:51;;;;;;;22.53;14.00;;;-0.20;99.90;;;;;;6204889;23;20893;-86
2020/12/11 06:30:33;;;;;;;24.03;14.43;;;-0.20;99.90;;;;;;6204130;23;20399;-87
2020/12/11 06:33:00;;;;;;;22.57;14.33;;;-0.20;99.90;;;;;;6178451;23;20465;-87
2020/12/11 06:35:27;;;;;;;23.55;14.88;;;-0.20;99.90;;;;;;6177723;23;21007;-87
2020/12/11 06:37:53;;;;;;;25.55;14.45;;;-0.20;99.90;;;;;;6205923;23;20148;-87
2020/12/11 06:40:48;;;;;;;31.25;19.83;;;-0.30;99.90;;;;;;6179921;23;20245;-87
2020/12/11 06:43:39;;;;;;;23.10;15.20;;;-0.20;99.90;;;;;;6180249;23;20524;-88
2020/12/11 06:46:19;;;;;;;24.70;15.00;;;-0.20;99.90;;;;;;6180630;23;20417;-87
2020/12/11 06:49:03;;;;;;;27.83;15.65;;;-0.20;99.90;;;;;;6181143;23;20764;-88
2020/12/11 06:51:29;;;;;;;22.70;14.70;;;-0.20;99.90;;;;;;6206772;23;20183;-88
2020/12/11 06:53:54;;;;;;;24.73;14.63;;;-0.20;99.90;;;;;;6180933;23;20406;-88
2020/12/11 06:56:49;;;;;;;24.90;14.03;;;-0.20;99.90;;;;;;6181383;23;20194;-87
2020/12/11 06:59:17;;;;;;;24.40;15.23;;;-0.20;99.90;;;;;;6202638;23;20541;-86
2020/12/11 07:01:43;;;;;;;23.00;15.57;;;-0.20;99.90;;;;;;6207149;23;20390;-87
2020/12/11 07:04:09;;;;;;;23.10;14.17;;;-0.10;99.90;;;;;;6181132;23;20822;-86
2020/12/11 07:06:35;;;;;;;17.83;12.30;;;-0.10;99.90;;;;;;6179607;23;20833;-86
2020/12/11 07:09:04;;;;;;;21.30;13.63;;;0.00;99.90;;;;;;6206939;23;20158;-87
2020/12/11 07:11:30;;;;;;;26.57;14.50;;;0.00;99.90;;;;;;6179222;23;20160;-87
2020/12/11 07:13:55;;;;;;;20.70;14.50;;;0.00;99.90;;;;;;6179863;23;20441;-87
2020/12/11 07:16:22;;;;;;;25.93;14.93;;;0.00;99.90;;;;;;6179364;23;20238;-87
2020/12/11 07:18:48;;;;;;;24.73;14.13;;;-0.10;99.90;;;;;;6180200;23;20633;-87
2020/12/11 07:21:14;;;;;;;23.40;14.30;;;0.00;99.90;;;;;;6206339;23;20391;-87
2020/12/11 07:23:40;;;;;;;27.00;16.53;;;0.00;99.90;;;;;;6207006;23;20386;-87
2020/12/11 07:26:07;;;;;;;24.87;16.07;;;0.00;99.90;;;;;;6179606;23;20470;-87
2020/12/11 07:28:33;;;;;;;26.00;17.03;;;0.00;99.90;;;;;;6180517;23;20391;-87
2020/12/11 07:30:59;;;;;;;28.23;17.70;;;-0.10;99.90;;;;;;6205756;23;20383;-87
2020/12/11 07:33:32;;;;;;;25.37;16.20;;;-0.10;99.90;;;;;;6206698;23;20406;-86
2020/12/11 07:36:00;;;;;;;23.70;14.63;;;0.00;99.90;;;;;;6206712;23;20430;-87
2020/12/11 07:38:27;;;;;;;23.70;14.97;;;-0.10;99.90;;;;;;6179529;23;20414;-87
2020/12/11 07:40:57;;;;;;;20.63;13.73;;;0.00;99.90;;;;;;6206315;23;20391;-86
2020/12/11 07:43:24;;;;;;;20.67;14.27;;;0.00;99.90;;;;;;6207099;23;20379;-86
2020/12/11 07:45:50;;;;;;;23.97;14.80;;;0.10;99.90;;;;;;6205361;23;20454;-86
2020/12/11 07:48:16;;;;;;;24.73;14.10;;;0.00;99.90;;;;;;6205947;23;20410;-86
2020/12/11 07:50:42;;;;;;;23.73;14.00;;;0.00;99.90;;;;;;6177443;23;20505;-86
2020/12/11 07:53:09;;;;;;;25.33;15.30;;;0.10;99.90;;;;;;6205864;23;20500;-87
2020/12/11 07:55:35;;;;;;;23.67;15.17;;;0.00;99.90;;;;;;6205966;23;20761;-87
2020/12/11 07:58:02;;;;;;;24.97;13.73;;;-0.10;99.90;;;;;;6205065;23;20702;-86
2020/12/11 08:00:28;;;;;;;25.57;15.80;;;0.00;99.90;;;;;;6204897;23;20391;-86
2020/12/11 08:03:05;;;;;;;23.17;14.20;;;0.10;99.90;;;;;;6205642;23;20498;-85
2020/12/11 08:05:32;;;;;;;26.53;15.43;;;0.10;99.90;;;;;;6205572;23;20140;-86
2020/12/11 08:07:58;;;;;;;26.40;14.90;;;0.00;99.90;;;;;;6206165;23;20437;-87
2020/12/11 08:10:33;;;;;;;30.87;16.90;;;0.00;99.90;;;;;;6204396;23;20390;-87
2020/12/11 08:13:17;;;;;;;24.47;15.07;;;0.10;99.90;;;;;;6205186;23;20745;-86
2020/12/11 08:15:44;;;;;;;32.37;17.80;;;0.20;99.90;;;;;;6205563;23;20791;-87
2020/12/11 08:18:23;;;;;;;24.10;14.83;;;0.40;99.90;;;;;;6206449;23;20759;-86
2020/12/11 08:21:00;;;;;;;28.30;15.57;;;0.50;99.90;;;;;;6205646;23;20453;-88
2020/12/11 08:23:26;;;;;;;29.57;17.37;;;0.60;99.90;;;;;;6178990;23;20402;-87
2020/12/11 08:26:09;;;;;;;25.53;14.30;;;0.80;99.90;;;;;;6179333;23;20853;-86
2020/12/11 08:28:35;;;;;;;27.80;15.70;;;1.00;99.90;;;;;;6206661;23;20912;-86
2020/12/11 08:31:22;;;;;;;25.20;14.37;;;1.00;99.90;;;;;;6205729;23;20407;-88
2020/12/11 08:33:50;;;;;;;24.60;15.37;;;1.20;99.90;;;;;;6178276;23;20399;-87
2020/12/11 08:36:22;;;;;;;23.73;13.87;;;1.20;99.90;;;;;;6178447;23;20446;-87
2020/12/11 08:39:13;;;;;;;22.77;14.43;;;1.40;99.90;;;;;;6179179;23;20445;-87
2020/12/11 08:41:48;;;;;;;26.00;16.73;;;1.60;99.90;;;;;;6205507;23;20768;-87
2020/12/11 08:50:20;;;;;;;26.13;15.73;;;1.70;99.90;;;;;;6206319;23;20365;-88
2020/12/11 08:52:45;;;;;;;26.07;16.53;;;1.60;99.90;;;;;;6177206;23;20386;-87
2020/12/11 08:55:11;;;;;;;26.87;18.47;;;1.70;99.90;;;;;;6204365;23;20464;-87
2020/12/11 08:57:38;;;;;;;25.60;16.30;;;1.70;99.90;;;;;;6195161;23;20917;-85
2020/12/11 09:00:05;;;;;;;25.47;15.37;;;1.60;99.90;;;;;;6196404;23;20178;-88
2020/12/11 09:02:31;;;;;;;28.33;15.83;;;1.60;99.90;;;;;;6170442;23;20842;-88
2020/12/11 09:04:57;;;;;;;22.60;15.63;;;1.50;99.90;;;;;;6198883;23;21164;-88
2020/12/11 09:07:26;;;;;;;22.27;15.17;;;1.60;99.90;;;;;;6171213;23;20489;-88
2020/12/11 09:09:52;;;;;;;23.00;15.83;;;1.80;99.90;;;;;;6199174;23;20387;-89
2020/12/11 09:12:18;;;;;;;22.47;15.50;;;2.00;99.90;;;;;;6172520;23;20444;-89
2020/12/11 09:14:44;;;;;;;20.20;13.43;;;2.40;99.90;;;;;;6198877;23;20485;-88
2020/12/11 09:17:10;;;;;;;21.47;14.07;;;2.60;99.90;;;;;;6172069;23;20840;-88
2020/12/11 09:19:36;;;;;;;20.50;14.17;;;2.80;99.90;;;;;;6173006;23;20455;-89
2020/12/11 09:22:02;;;;;;;22.07;14.37;;;3.00;99.90;;;;;;6172449;23;20511;-89
2020/12/11 09:24:30;;;;;;;21.50;14.73;;;3.50;99.90;;;;;;6201844;23;20371;-88
2020/12/11 09:27:11;;;;;;;22.60;14.10;;;3.80;99.90;;;;;;6174887;23;20169;-87
2020/12/11 09:29:40;;;;;;;19.50;12.60;;;3.70;99.90;;;;;;6173256;23;20447;-89
2020/12/11 09:32:07;;;;;;;19.20;13.13;;;3.50;99.90;;;;;;6172789;23;20401;-89
2020/12/11 09:34:34;;;;;;;19.80;13.67;;;3.40;99.90;;;;;;6173533;23;20446;-90
2020/12/11 09:37:02;;;;;;;17.90;12.80;;;3.50;99.90;;;;;;6172938;23;20466;-89
2020/12/11 09:39:28;;;;;;;17.97;11.90;;;3.60;99.90;;;;;;6173995;23;20456;-89
2020/12/11 09:42:03;;;;;;;20.10;12.93;;;3.50;99.90;;;;;;6176698;23;20381;-89
2020/12/11 09:45:16;;;;;;;19.90;13.30;;;3.20;99.90;;;;;;6203429;23;20378;-89
2020/12/11 09:52:38;;;;;;;18.07;12.30;;;2.80;99.90;;;;;;6213062;23;20146;-89
2020/12/11 09:55:04;;;;;;;18.93;12.53;;;2.80;99.90;;;;;;6174967;23;20757;-88
2020/12/11 09:57:31;;;;;;;23.10;13.80;;;2.70;99.90;;;;;;6176131;23;20391;-90
2020/12/11 10:00:00;;;;;;;20.00;13.40;;;2.70;99.90;;;;;;6178271;23;20473;-90
2020/12/11 10:04:51;;;;;;;24.63;14.83;;;2.80;99.90;;;;;;6206355;23;20578;-90
2020/12/11 10:07:17;;;;;;;17.23;12.60;;;2.80;99.90;;;;;;6205762;23;20594;-89
2020/12/11 10:09:43;;;;;;;16.90;11.40;;;2.80;99.90;;;;;;6208196;23;20155;-89
2020/12/11 10:12:09;;;;;;;18.90;12.60;;;2.80;99.90;;;;;;6208133;23;20652;-90
2020/12/11 10:14:38;;;;;;;19.93;11.63;;;2.80;99.90;;;;;;6207416;23;20188;-89
2020/12/11 10:17:04;;;;;;;19.73;13.20;;;2.90;99.90;;;;;;6206866;23;20381;-89
2020/12/11 10:19:30;;;;;;;15.20;12.07;;;3.20;99.90;;;;;;6182434;23;20391;-89
2020/12/11 10:21:56;;;;;;;15.30;11.00;;;3.50;99.90;;;;;;6210157;23;20226;-89
2020/12/11 10:24:22;;;;;;;19.10;12.10;;;3.40;99.90;;;;;;6183250;23;20489;-89
2020/12/11 10:26:49;;;;;;;14.03;10.90;;;3.20;99.90;;;;;;6183339;23;20399;-89
2020/12/11 10:29:15;;;;;;;16.40;11.50;;;3.00;99.90;;;;;;6182279;23;20776;-89
2020/12/11 10:31:44;;;;;;;19.37;13.20;;;2.90;99.90;;;;;;6209785;23;20434;-89
2020/12/11 10:34:12;;;;;;;18.80;13.00;;;2.90;99.90;;;;;;6183056;23;20800;-89
2020/12/11 10:36:38;;;;;;;16.30;12.00;;;2.90;99.90;;;;;;6208836;23;20452;-89
2020/12/11 10:39:05;;;;;;;15.80;11.53;;;3.00;99.90;;;;;;6183593;23;20419;-90
2020/12/11 10:45:47;;;;;;;16.17;10.33;;;3.10;99.90;;;;;;6223050;23;20405;-96
2020/12/11 10:51:39;;;;;;;16.67;11.13;;;3.40;99.90;;;;;;6086890;23;20479;-92
2020/12/11 10:55:07;;;;;;;15.80;10.67;;;3.50;99.90;;;;;;6185339;23;20717;-93
2020/12/11 12:02:38;;;;;;;15.20;11.70;;;5.80;99.90;;;;;;6241695;22;20486;-88
2020/12/11 12:05:12;;;;;;;15.10;11.63;;;5.80;99.90;;;;;;6212890;23;20396;-89
2020/12/11 12:07:44;;;;;;;19.30;11.80;;;5.80;99.90;;;;;;6238514;23;20386;-90
2020/12/11 12:10:31;;;;;;;15.70;11.50;;;5.90;99.90;;;;;;6212206;23;20388;-90
2020/12/11 12:13:05;;;;;;;14.30;11.20;;;6.30;99.90;;;;;;6207791;23;20411;-91
2020/12/11 12:15:32;;;;;;;15.57;11.80;;;6.50;99.90;;;;;;6211271;23;20485;-95
2020/12/11 12:18:07;;;;;;;15.67;12.60;;;6.80;99.90;;;;;;6209096;23;20397;-94
2020/12/11 12:21:04;;;;;;;16.00;11.90;;;7.10;99.90;;;;;;6221661;23;20386;-93
2020/12/11 12:28:56;;;;;;;17.37;12.80;;;6.90;99.90;;;;;;6246260;23;20371;-95
2020/12/11 12:31:53;;;;;;;16.10;12.47;;;6.10;99.90;;;;;;6229749;23;20797;-95
2020/12/11 12:37:50;;;;;;;17.97;12.77;;;5.60;99.90;;;;;;6174286;23;20383;-96
2020/12/11 12:43:23;;;;;;;22.47;14.67;;;5.30;99.90;;;;;;6248974;22;20399;-96
2020/12/11 12:45:51;;;;;;;17.97;14.23;;;5.20;99.90;;;;;;6222949;23;20389;-96
2020/12/11 12:48:31;;;;;;;17.93;12.80;;;5.30;99.90;;;;;;6235217;23;20410;-96
2020/12/11 12:50:57;;;;;;;19.93;12.50;;;5.30;99.90;;;;;;6234595;22;20472;-96
2020/12/11 12:53:57;;;;;;;19.10;14.47;;;5.20;99.90;;;;;;6238577;22;20379;-96
2020/12/11 12:56:46;;;;;;;18.80;13.40;;;5.20;99.90;;;;;;6262870;22;20171;-96
2020/12/11 12:59:21;;;;;;;17.57;13.10;;;5.10;99.90;;;;;;6226447;23;20388;-96
2020/12/11 13:14:38;;;;;;;15.53;12.20;;;4.40;99.90;;;;;;6210972;23;20446;-92
2020/12/11 13:28:37;;;;;;;15.10;11.07;;;4.30;99.90;;;;;;6189948;23;20455;-93
2020/12/11 13:31:03;;;;;;;18.63;13.30;;;4.30;99.90;;;;;;6187292;23;20382;-93
2020/12/11 13:33:28;;;;;;;19.50;15.00;;;4.20;99.90;;;;;;6181950;23;20395;-91
2020/12/11 13:35:54;;;;;;;20.67;13.90;;;4.10;99.90;;;;;;6183026;23;20198;-90
2020/12/11 13:38:20;;;;;;;18.67;13.47;;;4.10;99.90;;;;;;6178925;23;20156;-88
2020/12/11 13:40:46;;;;;;;18.67;12.80;;;4.00;99.90;;;;;;6178598;23;20159;-92
2020/12/11 13:43:13;;;;;;;19.53;13.80;;;3.90;99.90;;;;;;6205132;23;20159;-92
2020/12/11 13:45:44;;;;;;;19.83;12.90;;;3.90;99.90;;;;;;6180513;23;20732;-93
2020/12/11 14:54:42;;;;;;;20.73;14.97;;;3.90;99.90;;;;;;6161578;23;20446;-96
2020/12/11 15:03:07;;;;;;;20.57;14.47;;;3.70;99.90;;;;;;6206766;23;20427;-87
2020/12/11 15:05:45;;;;;;;19.73;15.87;;;3.60;99.90;;;;;;6179163;23;20394;-88
2020/12/11 15:08:11;;;;;;;19.30;14.13;;;3.50;99.90;;;;;;6177295;23;20391;-88
2020/12/11 15:10:36;;;;;;;22.67;16.70;;;3.40;99.90;;;;;;6179253;23;20406;-89
2020/12/11 15:13:04;;;;;;;21.23;15.20;;;3.30;99.90;;;;;;6155303;23;20563;-89
2020/12/11 15:15:31;;;;;;;20.37;13.80;;;3.30;99.90;;;;;;6181050;23;20500;-88
2020/12/11 15:18:20;;;;;;;17.20;13.17;;;3.40;99.90;;;;;;6154737;23;20390;-89
2020/12/11 15:21:09;;;;;;;17.10;12.23;;;3.50;99.90;;;;;;6203606;23;20401;-89
2020/12/11 15:24:03;;;;;;;19.53;14.33;;;3.50;99.90;;;;;;6179783;23;20715;-88
2020/12/11 15:26:32;;;;;;;19.73;14.57;;;3.40;99.90;;;;;;6180658;23;20877;-90
2020/12/11 15:29:07;;;;;;;16.93;12.10;;;3.30;99.90;;;;;;6207315;23;20393;-83
2020/12/11 15:31:55;;;;;;;16.07;11.63;;;3.30;99.90;;;;;;6178287;23;20395;-93
2020/12/11 15:34:21;;;;;;;13.90;11.50;;;3.30;99.90;;;;;;6181631;23;20422;-87
2020/12/11 15:42:53;;;;;;;14.67;10.33;;;3.50;99.90;;;;;;6207511;22;20426;-89
2020/12/11 15:45:31;;;;;;;12.87;9.67;;;3.40;99.90;;;;;;6180294;23;20470;-89
2020/12/11 15:47:57;;;;;;;23.80;16.50;;;3.50;99.90;;;;;;6206705;23;20369;-89
2020/12/11 15:50:26;;;;;;;16.53;11.73;;;3.50;99.90;;;;;;6178170;23;20399;-86
2020/12/11 15:52:58;;;;;;;13.27;9.93;;;3.40;99.90;;;;;;6156300;23;20540;-88
2020/12/11 15:55:26;;;;;;;16.03;10.67;;;3.40;99.90;;;;;;6179488;23;20758;-88
2020/12/11 15:57:53;;;;;;;14.40;10.80;;;3.40;99.90;;;;;;6204744;23;20739;-87
2020/12/11 16:00:31;;;;;;;14.20;10.20;;;3.30;99.90;;;;;;6204222;23;20379;-87
2020/12/11 16:02:57;;;;;;;15.80;12.33;;;3.30;99.90;;;;;;6179566;23;20702;-89
2020/12/11 16:05:23;;;;;;;14.27;10.33;;;3.30;99.90;;;;;;6179748;23;20446;-88
2020/12/11 16:07:49;;;;;;;12.63;8.60;;;3.20;99.90;;;;;;6179539;23;20390;-88